createdAt,value
2022-10-29T00:01:04.936Z,33.35
2022-10-29T00:03:40.239Z,31.23
2022-10-29T00:06:11.921Z,28.90
2022-10-29T00:08:41.873Z,26.58
2022-10-29T00:11:20.048Z,27.50
2022-10-29T00:13:53.703Z,26.50
2022-10-29T00:16:25.055Z,26.13
2022-10-29T00:18:52.631Z,26.77
2022-10-29T00:21:23.171Z,24.77
2022-10-29T00:23:51.915Z,24.88
2022-10-29T00:26:22.355Z,23.63
2022-10-29T00:28:53.718Z,26.35
2022-10-29T00:31:26.511Z,24.35
2022-10-29T00:33:55.228Z,24.60
2022-10-29T00:36:29.210Z,22.90
2022-10-29T00:38:57.267Z,24.80
2022-10-29T00:41:28.484Z,23.33
2022-10-29T00:44:23.402Z,22.85
2022-10-29T00:46:58.511Z,22.58
2022-10-29T00:49:27.520Z,22.15
2022-10-29T00:51:55.827Z,21.77
2022-10-29T00:54:23.662Z,22.70
2022-10-29T00:57:04.797Z,22.92
2022-10-29T00:59:33.155Z,21.23
2022-10-29T01:02:00.712Z,20.60
2022-10-29T01:04:28.793Z,20.75
2022-10-29T01:06:56.808Z,20.38
2022-10-29T01:09:24.283Z,19.05
2022-10-29T01:12:30.028Z,17.83
2022-10-29T01:15:44.857Z,18.33
2022-10-29T01:18:22.975Z,19.85
2022-10-29T01:21:10.905Z,20.23
2022-10-29T01:23:59.674Z,18.75
2022-10-29T01:26:38.962Z,17.42
2022-10-29T01:29:50.516Z,19.05
2022-10-29T01:33:01.492Z,19.33
2022-10-29T01:35:41.044Z,19.02
2022-10-29T01:38:19.497Z,18.95
2022-10-29T01:41:03.509Z,17.88
2022-10-29T01:43:55.672Z,18.50
2022-10-29T01:46:44.671Z,18.45
2022-10-29T01:49:27.388Z,19.20
2022-10-29T01:51:57.163Z,17.08
2022-10-29T01:54:24.851Z,18.55
2022-10-29T01:56:57.903Z,17.77
2022-10-29T01:59:35.987Z,19.20
2022-10-29T02:02:48.393Z,18.65
2022-10-29T02:05:42.388Z,19.15
2022-10-29T02:08:31.840Z,19.05
2022-10-29T02:11:14.743Z,18.50
2022-10-29T02:13:50.776Z,19.83
2022-10-29T02:16:18.960Z,18.45
2022-10-29T02:18:48.811Z,19.70
2022-10-29T02:21:18.348Z,18.67
2022-10-29T02:23:46.861Z,18.63
2022-10-29T02:26:14.707Z,19.05
2022-10-29T02:28:42.748Z,17.98
2022-10-29T02:31:10.487Z,18.55
2022-10-29T02:33:38.322Z,18.00
2022-10-29T02:36:06.463Z,17.90
2022-10-29T02:38:33.935Z,18.35
2022-10-29T02:41:01.662Z,18.20
2022-10-29T02:43:29.161Z,18.35
2022-10-29T02:46:19.458Z,17.63
2022-10-29T02:48:47.632Z,16.42
2022-10-29T02:51:15.916Z,15.98
2022-10-29T02:53:43.962Z,15.95
2022-10-29T02:56:11.953Z,16.15
2022-10-29T02:58:39.542Z,18.52
2022-10-29T03:01:07.380Z,17.08
2022-10-29T03:03:36.163Z,17.13
2022-10-29T03:06:03.987Z,18.40
2022-10-29T03:08:31.477Z,18.38
2022-10-29T03:10:59.171Z,16.60
2022-10-29T03:13:26.828Z,16.27
2022-10-29T03:15:54.337Z,17.15
2022-10-29T03:18:22.034Z,18.15
2022-10-29T03:20:49.566Z,16.90
2022-10-29T03:23:17.305Z,17.90
2022-10-29T03:25:45.274Z,18.20
2022-10-29T03:28:12.703Z,17.73
2022-10-29T03:30:40.174Z,18.15
2022-10-29T03:33:07.846Z,17.23
2022-10-29T03:35:35.399Z,16.67
2022-10-29T03:38:03.042Z,17.10
2022-10-29T03:40:30.937Z,16.52
2022-10-29T03:42:58.740Z,15.90
2022-10-29T03:45:26.380Z,16.33
2022-10-29T03:48:12.731Z,16.30
2022-10-29T03:50:40.203Z,16.42
2022-10-29T03:53:08.851Z,17.48
2022-10-29T03:55:36.543Z,15.65
2022-10-29T03:58:04.002Z,15.52
2022-10-29T04:00:31.663Z,16.02
2022-10-29T04:02:59.575Z,15.43
2022-10-29T04:05:27.817Z,16.23
2022-10-29T04:07:55.321Z,16.42
2022-10-29T04:10:23.029Z,21.40
2022-10-29T04:12:50.845Z,24.45
2022-10-29T04:15:18.880Z,23.67
2022-10-29T04:17:46.387Z,24.80
2022-10-29T04:20:29.730Z,25.65
2022-10-29T04:24:06.400Z,23.17
2022-10-29T04:28:36.872Z,27.27
2022-10-29T04:28:51.519Z,25.92
2022-10-29T04:31:19.339Z,25.30
2022-10-29T04:33:47.487Z,25.90
2022-10-29T04:36:15.181Z,25.50
2022-10-29T04:38:42.635Z,26.42
2022-10-29T04:41:10.421Z,25.00
2022-10-29T04:43:37.960Z,26.30
2022-10-29T04:46:05.579Z,25.98
2022-10-29T04:48:33.447Z,26.33
2022-10-29T04:51:00.894Z,24.90
2022-10-29T04:53:28.700Z,20.75
2022-10-29T04:56:01.578Z,19.80
2022-10-29T04:58:29.520Z,18.02
2022-10-29T05:01:07.422Z,17.15
2022-10-29T05:03:35.600Z,15.68
2022-10-29T05:06:07.885Z,15.48
2022-10-29T05:08:35.967Z,16.00
2022-10-29T05:11:07.065Z,17.00
2022-10-29T05:13:35.549Z,16.48
2022-10-29T05:16:03.334Z,17.52
2022-10-29T05:18:31.223Z,18.13
2022-10-29T05:20:59.697Z,18.67
2022-10-29T05:23:27.590Z,20.23
2022-10-29T05:25:56.122Z,21.92
2022-10-29T05:28:24.703Z,28.88
2022-10-29T05:30:53.715Z,27.45
2022-10-29T05:33:24.300Z,28.23
2022-10-29T05:35:52.547Z,26.83
2022-10-29T05:38:20.559Z,24.77
2022-10-29T05:40:48.176Z,22.50
2022-10-29T05:43:17.579Z,22.55
2022-10-29T05:45:45.611Z,23.85
2022-10-29T05:48:13.933Z,22.75
2022-10-29T05:50:41.541Z,23.73
2022-10-29T05:53:14.160Z,23.83
2022-10-29T05:55:42.741Z,27.60
2022-10-29T05:58:13.576Z,26.88
2022-10-29T06:00:44.701Z,26.67
2022-10-29T06:03:19.746Z,26.08
2022-10-29T06:05:48.873Z,27.27
2022-10-29T06:10:45.110Z,26.35
2022-10-29T06:13:18.409Z,27.25
2022-10-29T06:15:47.297Z,27.67
2022-10-29T06:18:16.117Z,25.90
2022-10-29T06:20:43.879Z,26.47
2022-10-29T06:23:12.437Z,28.02
2022-10-29T06:25:40.102Z,29.75
2022-10-29T06:28:12.210Z,28.17
2022-10-29T06:30:40.227Z,30.48
2022-10-29T06:33:08.084Z,28.63
2022-10-29T06:38:07.854Z,28.67
2022-10-29T06:40:40.919Z,30.33
2022-10-29T06:43:12.004Z,29.00
2022-10-29T06:45:40.081Z,29.33
2022-10-29T06:48:10.368Z,30.55
2022-10-29T06:50:37.914Z,33.38
2022-10-29T06:53:09.347Z,32.88
2022-10-29T06:55:36.901Z,34.00
2022-10-29T06:58:10.733Z,32.55
2022-10-29T07:00:38.880Z,34.15
2022-10-29T07:03:07.427Z,35.47
2022-10-29T07:05:36.331Z,35.42
2022-10-29T07:08:04.078Z,38.17
2022-10-29T07:10:33.304Z,36.58
2022-10-29T07:13:01.743Z,38.15
2022-10-29T07:15:30.977Z,37.57
2022-10-29T07:18:08.241Z,35.88
2022-10-29T07:20:41.360Z,39.20
2022-10-29T07:23:10.615Z,37.92
2022-10-29T07:25:39.955Z,39.05
2022-10-29T07:28:16.463Z,39.13
2022-10-29T07:30:45.413Z,38.72
2022-10-29T07:33:13.521Z,38.10
2022-10-29T07:35:41.720Z,40.88
2022-10-29T07:38:11.725Z,41.28
2022-10-29T07:40:58.232Z,36.80
2022-10-29T07:43:25.991Z,40.25
2022-10-29T07:45:53.977Z,43.83
2022-10-29T07:48:22.139Z,43.30
2022-10-29T07:50:50.408Z,40.75
2022-10-29T07:53:18.077Z,43.13
2022-10-29T07:55:55.791Z,40.75
2022-10-29T07:58:24.519Z,35.60
2022-10-29T08:00:53.285Z,35.65
2022-10-29T08:03:21.332Z,36.80
2022-10-29T08:05:56.204Z,32.58
2022-10-29T08:08:25.543Z,31.48
2022-10-29T08:10:53.244Z,32.40
2022-10-29T08:13:20.771Z,32.65
2022-10-29T08:15:48.165Z,31.83
2022-10-29T08:18:18.217Z,30.20
2022-10-29T08:20:47.039Z,30.80
2022-10-29T08:23:17.612Z,30.08
2022-10-29T08:25:45.228Z,30.67
2022-10-29T08:28:15.442Z,30.77
2022-10-29T08:30:45.835Z,34.00
2022-10-29T08:33:13.728Z,35.35
2022-10-29T08:35:41.304Z,34.20
2022-10-29T08:38:09.203Z,32.47
2022-10-29T08:41:05.408Z,33.72
2022-10-29T08:46:48.714Z,35.58
2022-10-29T08:49:23.821Z,37.95
2022-10-29T08:52:24.332Z,40.63
2022-10-29T08:55:17.611Z,39.80
2022-10-29T08:57:57.997Z,41.50
2022-10-29T09:00:35.148Z,41.92
2022-10-29T09:03:02.750Z,38.55
2022-10-29T09:06:16.454Z,39.42
2022-10-29T09:09:23.956Z,40.97
2022-10-29T09:12:21.912Z,43.38
2022-10-29T09:15:07.805Z,46.30
2022-10-29T09:18:10.104Z,42.38
2022-10-29T09:21:01.551Z,45.92
2022-10-29T09:23:38.886Z,46.45
2022-10-29T09:26:24.514Z,47.88
2022-10-29T09:29:29.364Z,48.67
2022-10-29T09:32:19.400Z,50.38
2022-10-29T09:34:56.632Z,49.53
2022-10-29T09:37:53.644Z,51.00
2022-10-29T09:40:41.419Z,50.80
2022-10-29T09:43:39.159Z,47.95
2022-10-29T09:46:36.175Z,45.70
2022-10-29T09:49:56.387Z,46.47
2022-10-29T09:52:32.075Z,47.05
2022-10-29T09:55:05.009Z,45.50
2022-10-29T09:57:54.068Z,46.72
2022-10-29T10:00:29.564Z,44.70
2022-10-29T10:03:11.363Z,45.10
2022-10-29T10:06:05.114Z,46.15
2022-10-29T10:08:34.774Z,47.45
2022-10-29T10:13:50.428Z,42.03
2022-10-29T10:16:29.583Z,46.75
2022-10-29T10:21:34.516Z,47.60
2022-10-29T10:24:05.169Z,50.08
2022-10-29T10:26:44.886Z,52.15
2022-10-29T10:29:19.953Z,51.78
2022-10-29T10:31:56.929Z,54.35
2022-10-29T10:34:38.087Z,50.35
2022-10-29T10:37:18.625Z,48.92
2022-10-29T10:40:04.682Z,45.20
2022-10-29T10:42:39.434Z,48.50
2022-10-29T10:45:35.367Z,44.15
2022-10-29T10:48:08.390Z,41.45
2022-10-29T10:50:37.483Z,43.75
2022-10-29T10:53:23.089Z,41.80
2022-10-29T10:55:59.976Z,39.00
2022-10-29T10:58:38.854Z,37.63
2022-10-29T11:01:14.112Z,34.05
2022-10-29T11:03:54.576Z,33.45
2022-10-29T11:06:50.466Z,34.80
2022-10-29T11:09:27.072Z,32.53
2022-10-29T11:12:15.988Z,30.30
2022-10-29T11:14:54.205Z,31.00
2022-10-29T11:18:00.638Z,28.67
2022-10-29T11:20:36.449Z,26.33
2022-10-29T11:23:35.980Z,27.92
2022-10-29T11:26:13.476Z,28.02
2022-10-29T11:29:14.546Z,26.20
2022-10-29T11:32:43.899Z,27.33
2022-10-29T11:35:12.631Z,27.35
2022-10-29T11:38:08.660Z,27.10
2022-10-29T11:40:59.555Z,26.27
2022-10-29T11:43:27.029Z,25.95
2022-10-29T11:46:13.023Z,27.30
2022-10-29T11:49:10.217Z,27.67
2022-10-29T11:51:43.934Z,25.20
2022-10-29T11:55:08.545Z,25.98
2022-10-29T11:58:03.712Z,24.58
2022-10-29T12:00:54.344Z,24.98
2022-10-29T12:03:28.859Z,23.48
2022-10-29T12:06:28.817Z,24.38
2022-10-29T12:09:30.877Z,24.40
2022-10-29T12:12:24.680Z,23.85
2022-10-29T12:15:13.084Z,23.88
2022-10-29T12:18:16.357Z,24.92
2022-10-29T12:20:55.191Z,23.23
2022-10-29T12:24:05.976Z,23.38
2022-10-29T12:26:44.522Z,22.33
2022-10-29T12:29:20.017Z,24.03
2022-10-29T12:32:03.742Z,23.88
2022-10-29T12:35:03.068Z,24.20
2022-10-29T12:37:42.221Z,22.85
2022-10-29T12:40:26.595Z,21.48
2022-10-29T12:42:56.405Z,22.05
2022-10-29T12:46:19.175Z,19.35
2022-10-29T12:48:50.177Z,17.88
2022-10-29T12:51:26.073Z,19.52
2022-10-29T12:54:05.350Z,21.77
2022-10-29T12:59:25.046Z,17.23
2022-10-29T13:05:07.006Z,22.38
2022-10-29T13:07:59.309Z,17.27
2022-10-29T13:10:33.730Z,18.20
2022-10-29T13:13:07.192Z,17.85
2022-10-29T13:15:43.307Z,18.58
2022-10-29T13:18:13.254Z,18.20
2022-10-29T13:20:47.734Z,19.92
2022-10-29T13:23:24.314Z,17.45
2022-10-29T13:26:00.247Z,16.57
2022-10-29T13:28:27.659Z,17.42
2022-10-29T13:31:04.903Z,14.70
2022-10-29T13:33:32.304Z,15.88
2022-10-29T13:36:03.088Z,15.77
2022-10-29T13:38:58.674Z,15.77
2022-10-29T13:41:50.518Z,17.88
2022-10-29T13:44:26.224Z,16.33
2022-10-29T13:47:17.947Z,14.20
2022-10-29T13:49:48.392Z,14.90
2022-10-29T13:52:22.227Z,14.80
2022-10-29T13:55:01.450Z,14.93
2022-10-29T13:57:38.112Z,15.43
2022-10-29T14:00:15.810Z,17.05
2022-10-29T14:03:25.200Z,14.70
2022-10-29T14:06:19.456Z,12.50
2022-10-29T14:09:15.137Z,13.27
2022-10-29T14:11:50.989Z,14.40
2022-10-29T14:14:37.924Z,14.40
2022-10-29T14:17:14.391Z,13.68
2022-10-29T14:19:48.468Z,14.02
2022-10-29T14:22:23.116Z,16.20
2022-10-29T14:24:50.981Z,15.75
2022-10-29T14:27:18.447Z,16.15
2022-10-29T14:29:46.438Z,16.02
2022-10-29T14:32:19.725Z,14.88
2022-10-29T14:34:51.799Z,14.85
2022-10-29T14:37:39.162Z,16.67
2022-10-29T14:40:36.378Z,18.20
2022-10-29T14:43:05.509Z,22.52
2022-10-29T14:45:33.740Z,24.10
2022-10-29T14:48:16.147Z,26.10
2022-10-29T14:50:56.648Z,24.02
2022-10-29T14:53:35.347Z,21.85
2022-10-29T14:56:11.354Z,23.27
2022-10-29T14:58:40.981Z,25.13
2022-10-29T15:01:15.861Z,25.73
2022-10-29T15:03:43.575Z,25.23
2022-10-29T15:06:27.177Z,24.05
2022-10-29T15:09:04.259Z,28.35
2022-10-29T15:11:34.027Z,27.25
2022-10-29T15:16:31.220Z,23.17
2022-10-29T15:19:00.412Z,24.02
2022-10-29T15:21:32.313Z,23.10
2022-10-29T15:24:10.043Z,24.50
2022-10-29T15:26:54.338Z,24.88
2022-10-29T15:29:34.672Z,23.30
2022-10-29T15:32:04.869Z,23.63
2022-10-29T15:34:36.892Z,24.33
2022-10-29T15:37:19.342Z,23.60
2022-10-29T15:39:59.088Z,25.25
2022-10-29T15:42:33.853Z,24.63
2022-10-29T15:45:27.338Z,23.90
2022-10-29T15:48:09.543Z,25.60
2022-10-29T15:50:43.676Z,25.90
2022-10-29T15:53:16.893Z,26.75
2022-10-29T15:55:45.184Z,31.35
2022-10-29T15:58:22.717Z,33.17
2022-10-29T16:00:51.254Z,30.73
2022-10-29T16:03:25.765Z,30.00
2022-10-29T16:06:01.846Z,29.73
2022-10-29T16:08:55.440Z,31.58
2022-10-29T16:11:41.584Z,39.67
2022-10-29T16:14:09.977Z,42.50
2022-10-29T16:16:40.407Z,32.00
2022-10-29T16:19:08.231Z,33.45
2022-10-29T16:21:36.098Z,33.40
2022-10-29T16:24:06.427Z,32.45
2022-10-29T16:26:33.892Z,32.70
2022-10-29T16:29:01.708Z,34.13
2022-10-29T16:31:29.830Z,34.88
2022-10-29T16:34:01.941Z,35.78
2022-10-29T16:36:29.572Z,34.88
2022-10-29T16:38:57.480Z,35.70
2022-10-29T16:41:24.986Z,33.38
2022-10-29T16:43:53.111Z,33.28
2022-10-29T16:46:20.776Z,30.60
2022-10-29T16:48:48.210Z,32.03
2022-10-29T16:51:15.989Z,33.50
2022-10-29T16:53:43.492Z,31.27
2022-10-29T16:56:10.941Z,34.95
2022-10-29T16:58:38.757Z,33.45
2022-10-29T17:01:10.884Z,35.05
2022-10-29T17:03:41.741Z,35.08
2022-10-29T17:06:10.872Z,33.10
2022-10-29T17:08:38.866Z,34.67
2022-10-29T17:11:10.170Z,37.30
2022-10-29T17:13:38.202Z,37.95
2022-10-29T17:16:12.595Z,36.03
2022-10-29T17:18:41.393Z,38.67
2022-10-29T17:21:08.909Z,37.65
2022-10-29T17:23:37.099Z,37.95
2022-10-29T17:26:04.976Z,39.08
2022-10-29T17:28:39.106Z,39.78
2022-10-29T17:31:09.350Z,36.60
2022-10-29T17:33:37.165Z,38.25
2022-10-29T17:36:13.238Z,39.67
2022-10-29T17:38:41.667Z,40.95
2022-10-29T17:41:09.619Z,39.10
2022-10-29T17:43:37.481Z,43.63
2022-10-29T17:46:05.269Z,43.58
2022-10-29T17:48:33.243Z,42.75
2022-10-29T17:51:03.968Z,42.15
2022-10-29T17:53:32.187Z,41.97
2022-10-29T17:56:00.622Z,44.50
2022-10-29T17:58:28.758Z,44.00
2022-10-29T18:01:05.488Z,43.97
2022-10-29T18:03:33.731Z,45.05
2022-10-29T18:06:03.428Z,46.42
2022-10-29T18:08:32.224Z,45.50
2022-10-29T18:11:08.689Z,46.65
2022-10-29T18:13:42.409Z,46.28
2022-10-29T18:16:16.074Z,47.75
2022-10-29T18:18:54.867Z,46.47
2022-10-29T18:21:30.707Z,45.88
2022-10-29T18:23:58.377Z,47.28
2022-10-29T18:26:31.446Z,59.83
2022-10-29T18:29:02.242Z,76.78
2022-10-29T18:31:32.211Z,68.72
2022-10-29T18:34:05.032Z,68.32
2022-10-29T18:36:33.211Z,77.20
2022-10-29T18:39:01.032Z,83.22
2022-10-29T18:41:30.100Z,105.40
2022-10-29T18:43:58.853Z,103.07
2022-10-29T18:46:26.981Z,101.00
2022-10-29T18:48:54.752Z,98.17
2022-10-29T18:51:25.992Z,94.05
2022-10-29T18:53:57.940Z,99.18
2022-10-29T18:56:27.858Z,98.95
2022-10-29T18:58:57.191Z,99.40
2022-10-29T19:01:31.952Z,97.18
2022-10-29T19:04:02.515Z,100.15
2022-10-29T19:06:33.771Z,100.03
2022-10-29T19:09:04.560Z,98.85
2022-10-29T19:11:32.928Z,88.70
2022-10-29T19:14:07.460Z,89.35
2022-10-29T19:16:35.873Z,88.22
2022-10-29T19:19:08.167Z,88.07
2022-10-29T19:21:37.748Z,86.25
2022-10-29T19:24:06.988Z,81.97
2022-10-29T19:26:36.783Z,71.53
2022-10-29T19:29:05.654Z,58.20
2022-10-29T19:31:35.418Z,48.95
2022-10-29T19:34:06.718Z,45.65
2022-10-29T19:36:37.254Z,42.08
2022-10-29T19:39:05.901Z,44.65
2022-10-29T19:41:33.878Z,43.50
2022-10-29T19:44:03.028Z,42.53
2022-10-29T19:48:59.348Z,44.08
2022-10-29T19:51:27.762Z,41.67
2022-10-29T19:53:58.034Z,41.30
2022-10-29T19:56:26.571Z,38.78
2022-10-29T19:58:54.080Z,43.35
2022-10-29T20:01:22.616Z,41.53
2022-10-29T20:03:51.361Z,38.22
2022-10-29T20:06:20.862Z,39.97
2022-10-29T20:08:48.499Z,47.33
2022-10-29T20:11:16.307Z,48.28
2022-10-29T20:13:43.812Z,52.35
2022-10-29T20:16:18.797Z,51.53
2022-10-29T20:18:47.434Z,55.20
2022-10-29T20:21:16.271Z,61.15
2022-10-29T20:23:44.846Z,60.47
2022-10-29T20:26:13.149Z,53.72
2022-10-29T20:28:41.720Z,50.30
2022-10-29T20:31:18.579Z,48.07
2022-10-29T20:33:54.135Z,47.83
2022-10-29T20:36:24.225Z,48.65
2022-10-29T20:38:52.860Z,44.17
2022-10-29T20:41:21.956Z,43.60
2022-10-29T20:43:54.965Z,45.65
2022-10-29T20:46:24.595Z,44.10
2022-10-29T20:48:52.328Z,41.33
2022-10-29T20:51:20.105Z,42.53
2022-10-29T20:53:47.629Z,70.25
2022-10-29T20:56:16.565Z,61.28
2022-10-29T20:58:45.515Z,45.38
2022-10-29T21:01:18.186Z,33.88
2022-10-29T21:03:48.270Z,30.48
2022-10-29T21:06:17.491Z,33.58
2022-10-29T21:08:51.110Z,36.05
2022-10-29T21:11:21.228Z,36.75
2022-10-29T21:13:49.347Z,40.78
2022-10-29T21:16:23.621Z,40.67
2022-10-29T21:18:55.913Z,36.75
2022-10-29T21:21:24.542Z,34.97
2022-10-29T21:23:52.646Z,32.13
2022-10-29T21:26:23.103Z,31.38
2022-10-29T21:28:53.370Z,33.17
2022-10-29T21:33:51.529Z,30.23
2022-10-29T21:36:20.434Z,30.63
2022-10-29T21:38:48.399Z,30.35
2022-10-29T21:41:16.451Z,30.45
2022-10-29T21:43:44.302Z,29.38
2022-10-29T21:46:11.820Z,25.67
2022-10-29T21:48:39.293Z,27.17
2022-10-29T21:51:15.312Z,25.35
2022-10-29T21:53:42.791Z,25.40
2022-10-29T21:56:14.243Z,25.27
2022-10-29T21:58:42.508Z,27.23
2022-10-29T22:01:18.489Z,31.63
2022-10-29T22:04:12.684Z,31.65
2022-10-29T22:07:09.314Z,49.95
2022-10-29T22:09:52.172Z,59.20
2022-10-29T22:12:29.322Z,57.28
2022-10-29T22:15:10.010Z,54.95
2022-10-29T22:17:54.452Z,54.67
2022-10-29T22:20:31.375Z,51.47
2022-10-29T22:23:10.031Z,53.38
2022-10-29T22:25:58.346Z,48.40
2022-10-29T22:28:36.547Z,51.22
2022-10-29T22:31:18.384Z,48.90
2022-10-29T22:34:04.117Z,57.92
2022-10-29T22:36:43.087Z,57.97
2022-10-29T22:39:23.930Z,61.03
2022-10-29T22:42:04.207Z,66.25
2022-10-29T22:44:44.966Z,65.03
2022-10-29T22:47:21.433Z,62.65
2022-10-29T22:49:58.282Z,62.78
2022-10-29T22:54:59.441Z,62.42
2022-10-29T22:57:29.757Z,66.53
2022-10-29T23:00:11.880Z,63.42
2022-10-29T23:03:09.287Z,63.05
2022-10-29T23:05:45.728Z,58.25
2022-10-29T23:08:13.963Z,58.08
2022-10-29T23:10:41.375Z,59.28
2022-10-29T23:13:08.849Z,55.85
2022-10-29T23:15:36.526Z,56.65
2022-10-29T23:18:04.278Z,53.28
2022-10-29T23:20:31.694Z,54.55
2022-10-29T23:23:00.218Z,56.30
2022-10-29T23:25:27.942Z,51.17
2022-10-29T23:27:55.456Z,51.08
2022-10-29T23:30:23.185Z,51.85
2022-10-29T23:33:02.433Z,54.53
2022-10-29T23:35:41.053Z,46.40
2022-10-29T23:38:17.519Z,45.78
2022-10-29T23:40:56.101Z,48.15
2022-10-29T23:43:30.610Z,56.78
2022-10-29T23:46:10.259Z,56.90
2022-10-29T23:48:47.137Z,55.92
2022-10-29T23:51:22.024Z,60.63
2022-10-29T23:53:57.730Z,60.72
2022-10-29T23:56:34.819Z,60.60
2022-10-29T23:59:13.664Z,57.38
